Newport News Williamsburg International Airport
KPHF : now visible

Airfield :











YOU CAN JOIN US ON...

 
LOGIN :

Register | Disclaimer

   EN    FR    IT 

 









Legend :    VFR   Marginal VFR   IFR   Intensive IFR   Very Intensive IFR
Visi :
Ceiling :
>= 8 km
>= 3000ft
5 to 8 km
1000 to 3000 ft
1500m to 5 km
500 to 1000 ft
800 to 1500m
200 to 500 ft
< 800m
< 200 ft
Symbols :   Thunderstorms  Fog  Heavy snow  Heavy precipitations  Wind > 20 kt







- Airport Elevation : 42 ft
- IATA code : PHF


KPHF - Newport News Williamsburg International

CURRENT METAR :
  • 201154Z 24012KT 10SM CLR 23/19 A2999 RMK AO2 SLP153 T02330194 10244 20217 53004

EXPIRED METARs :
  • 201054Z 22013KT 10SM CLR 22/19 A2998 RMK AO2 PK WND 22026/1029 SLP152 T02220189

TAF KPHF
Valid from the 20 at 12:00 until the 21 at 12:00 UTC


201120Z 2012/2112 21012G18KT P6SM BKN250
FM201500 23012G20KT P6SM SCT050
TEMPO 2021/2101 BKN050
FM210200 27007KT P6SM SCT150
FM210800 34010KT P6SM SKC
KZDC FIR / North America



MET'MAP, your aeronautical weather chart ! - Copyright ORBIFLY December 2007 - Disclaimer

ORBIFLY MET'MAP TEAM :

Programming & Development : Alexandra Zaïnal
Concept & Development : Baudouin d'Aumeries
Co-Development & Prog : Marc-Olivier Méhu
Technical & hardware support : Manuel Goepfert

Contact : metmap@orbifly.com




SOURCES & CREDITS :

   NOAA       Earth
Advisory